createdAt,value
2022-08-10T00:00:34.653Z,18.23
2022-08-10T00:01:38.579Z,18.24
2022-08-10T00:02:41.620Z,18.23
2022-08-10T00:03:44.113Z,18.18
2022-08-10T00:04:46.659Z,18.25
2022-08-10T00:05:53.181Z,18.11
2022-08-10T00:06:54.921Z,18.22
2022-08-10T00:07:57.697Z,18.20
2022-08-10T00:09:00.111Z,18.19
2022-08-10T00:10:03.996Z,18.26
2022-08-10T00:11:07.306Z,18.26
2022-08-10T00:12:11.476Z,18.27
2022-08-10T00:13:13.872Z,18.15
2022-08-10T00:14:16.417Z,18.14
2022-08-10T00:15:52.301Z,18.16
2022-08-10T00:16:25.698Z,18.16
2022-08-10T00:17:28.233Z,18.26
2022-08-10T00:18:35.353Z,18.30
2022-08-10T00:20:03.395Z,18.32
2022-08-10T00:20:41.561Z,18.31
2022-08-10T00:21:45.319Z,18.18
2022-08-10T00:22:48.852Z,18.23
2022-08-10T00:23:52.308Z,18.19
2022-08-10T00:24:54.746Z,18.25
2022-08-10T00:25:57.131Z,18.16
2022-08-10T00:27:52.278Z,17.99
2022-08-10T00:28:04.432Z,18.19
2022-08-10T00:29:08.354Z,18.08
2022-08-10T00:30:12.425Z,18.14
2022-08-10T00:31:14.780Z,18.13
2022-08-10T00:32:17.157Z,18.18
2022-08-10T00:33:19.621Z,18.17
2022-08-10T00:34:21.969Z,18.23
2022-08-10T00:35:24.387Z,18.27
2022-08-10T00:36:27.029Z,18.34
2022-08-10T00:37:31.246Z,18.24
2022-08-10T00:38:33.546Z,18.26
2022-08-10T00:39:39.638Z,18.13
2022-08-10T00:40:41.892Z,18.20
2022-08-10T00:41:44.434Z,18.11
2022-08-10T00:42:46.680Z,18.10
2022-08-10T00:43:49.094Z,18.04
2022-08-10T00:44:51.401Z,17.97
2022-08-10T00:45:58.599Z,17.94
2022-08-10T00:46:58.352Z,17.93
2022-08-10T00:48:01.350Z,17.97
2022-08-10T00:49:03.846Z,17.90
2022-08-10T00:50:07.624Z,17.91
2022-08-10T00:51:11.092Z,17.83
2022-08-10T00:52:14.825Z,18.03
2022-08-10T00:53:17.358Z,17.88
2022-08-10T00:54:24.163Z,17.87
2022-08-10T00:55:24.420Z,17.94
2022-08-10T00:56:41.668Z,17.86
2022-08-10T00:57:33.878Z,17.95
2022-08-10T00:58:38.021Z,18.06
2022-08-10T00:59:57.627Z,18.05
2022-08-10T01:00:47.304Z,18.13
2022-08-10T01:02:09.376Z,18.14
2022-08-10T01:02:54.038Z,18.16
2022-08-10T01:04:39.996Z,18.12
2022-08-10T01:05:09.776Z,18.00
2022-08-10T01:06:28.064Z,18.06
2022-08-10T01:09:11.706Z,18.19
2022-08-10T01:10:43.577Z,18.00
2022-08-10T01:12:39.510Z,18.13
2022-08-10T01:13:12.682Z,18.05
2022-08-10T01:14:31.377Z,17.93
2022-08-10T01:15:40.414Z,17.91
2022-08-10T01:16:52.597Z,17.92
2022-08-10T01:18:10.823Z,17.82
2022-08-10T01:19:22.859Z,17.91
2022-08-10T01:20:44.051Z,17.83
2022-08-10T01:21:57.111Z,17.84
2022-08-10T01:23:24.698Z,17.82
2022-08-10T01:24:48.714Z,17.90
2022-08-10T01:26:11.743Z,17.77
2022-08-10T01:27:17.273Z,17.92
2022-08-10T01:28:55.142Z,17.93
2022-08-10T01:30:09.319Z,17.93
2022-08-10T01:31:15.383Z,18.04
2022-08-10T01:32:21.272Z,17.99
2022-08-10T01:33:31.790Z,18.00
2022-08-10T01:34:38.103Z,18.03
2022-08-10T01:36:02.604Z,17.93
2022-08-10T01:37:08.757Z,17.93
2022-08-10T01:38:20.382Z,17.83
2022-08-10T01:39:26.331Z,17.77
2022-08-10T01:40:31.883Z,17.84
2022-08-10T01:41:46.098Z,17.92
2022-08-10T01:42:47.496Z,17.84
2022-08-10T01:44:05.523Z,17.78
2022-08-10T01:45:10.653Z,17.65
2022-08-10T01:46:14.967Z,17.61
2022-08-10T01:47:22.255Z,17.57
2022-08-10T01:49:37.198Z,17.64
2022-08-10T01:50:59.252Z,17.63
2022-08-10T01:51:53.840Z,17.61
2022-08-10T01:52:59.960Z,17.46
2022-08-10T01:54:12.771Z,17.47
2022-08-10T01:55:14.896Z,17.35
2022-08-10T01:56:20.190Z,17.50
2022-08-10T01:57:24.814Z,17.49
2022-08-10T01:58:29.774Z,17.40
2022-08-10T01:59:37.502Z,17.40
2022-08-10T02:00:42.701Z,17.31
2022-08-10T02:01:51.504Z,17.37
2022-08-10T02:02:56.014Z,17.31
2022-08-10T02:04:04.796Z,17.30
2022-08-10T02:05:08.293Z,17.20
2022-08-10T02:06:14.158Z,17.17
2022-08-10T02:07:25.679Z,17.31
2022-08-10T02:08:30.167Z,17.21
2022-08-10T02:09:36.042Z,17.21
2022-08-10T02:10:43.099Z,17.35
2022-08-10T02:12:06.755Z,17.24
2022-08-10T02:12:51.520Z,17.30
2022-08-10T02:13:55.702Z,17.35
2022-08-10T02:15:07.792Z,17.27
2022-08-10T02:16:12.733Z,17.13
2022-08-10T02:17:58.056Z,17.06
2022-08-10T02:18:24.464Z,17.13
2022-08-10T02:19:29.408Z,17.13
2022-08-10T02:20:38.162Z,17.14
2022-08-10T02:22:34.766Z,17.15
2022-08-10T02:22:54.016Z,17.19
2022-08-10T02:23:59.706Z,17.34
2022-08-10T02:25:05.298Z,17.23
2022-08-10T02:26:10.563Z,17.26
2022-08-10T02:27:14.934Z,17.32
2022-08-10T02:28:27.512Z,17.02
2022-08-10T02:29:27.810Z,17.18
2022-08-10T02:30:31.916Z,17.14
2022-08-10T02:31:35.851Z,17.01
2022-08-10T02:32:38.980Z,17.04
2022-08-10T02:33:56.484Z,16.98
2022-08-10T02:34:50.727Z,17.07
2022-08-10T02:35:55.995Z,16.96
2022-08-10T02:37:02.301Z,17.04
2022-08-10T02:38:09.186Z,16.96
2022-08-10T02:39:13.034Z,16.98
2022-08-10T02:45:01.997Z,16.93
2022-08-10T02:45:13.002Z,16.82
2022-08-10T02:45:17.698Z,16.88
2022-08-10T02:45:20.720Z,16.80
2022-08-10T02:45:22.578Z,16.81
2022-08-10T02:46:18.219Z,16.79
2022-08-10T02:47:52.263Z,16.80
2022-08-10T02:49:04.150Z,16.86
2022-08-10T02:50:13.385Z,16.81
2022-08-10T02:52:07.476Z,16.88
2022-08-10T02:53:56.133Z,16.91
2022-08-10T02:54:57.792Z,16.66
2022-08-10T02:56:11.703Z,16.74
2022-08-10T02:57:20.308Z,16.73
2022-08-10T02:58:35.281Z,16.78
2022-08-10T02:59:43.847Z,16.92
2022-08-10T03:00:49.882Z,16.87
2022-08-10T03:01:55.982Z,16.86
2022-08-10T03:03:00.324Z,16.87
2022-08-10T03:04:08.641Z,16.69
2022-08-10T03:05:13.583Z,16.78
2022-08-10T03:06:20.051Z,16.81
2022-08-10T03:07:44.236Z,16.85
2022-08-10T03:08:32.870Z,16.82
2022-08-10T03:10:50.067Z,17.02
2022-08-10T03:12:36.177Z,16.97
2022-08-10T03:14:15.117Z,16.96
2022-08-10T03:15:20.063Z,16.81
2022-08-10T03:16:25.800Z,17.01
2022-08-10T03:17:32.581Z,16.93
2022-08-10T03:18:36.902Z,16.90
2022-08-10T03:20:34.082Z,16.87
2022-08-10T03:20:47.457Z,16.86
2022-08-10T03:21:52.429Z,16.48
2022-08-10T03:22:55.979Z,16.65
2022-08-10T03:23:59.790Z,16.49
2022-08-10T03:25:02.841Z,16.44
2022-08-10T03:26:06.869Z,16.52
2022-08-10T03:27:10.885Z,16.54
2022-08-10T03:28:18.221Z,16.62
2022-08-10T03:29:21.274Z,16.57
2022-08-10T03:30:32.165Z,16.64
2022-08-10T03:31:30.227Z,16.60
2022-08-10T03:32:33.822Z,16.67
2022-08-10T03:33:40.026Z,16.75
2022-08-10T03:34:42.769Z,16.77
2022-08-10T03:36:40.341Z,16.68
2022-08-10T03:36:49.699Z,16.52
2022-08-10T03:37:52.108Z,16.55
2022-08-10T03:38:56.798Z,16.72
2022-08-10T03:39:59.200Z,16.72
2022-08-10T03:41:04.546Z,16.67
2022-08-10T03:42:09.909Z,16.82
2022-08-10T03:43:18.038Z,16.63
2022-08-10T03:44:23.178Z,16.69
2022-08-10T03:45:27.781Z,16.60
2022-08-10T03:46:37.269Z,16.73
2022-08-10T03:47:42.368Z,16.67
2022-08-10T03:48:49.724Z,16.54
2022-08-10T03:49:55.408Z,16.77
2022-08-10T03:50:59.466Z,16.65
2022-08-10T03:52:02.139Z,16.81
2022-08-10T03:53:04.696Z,16.80
2022-08-10T03:54:08.063Z,16.92
2022-08-10T03:55:11.116Z,16.94
2022-08-10T03:56:28.982Z,16.75
2022-08-10T03:57:21.427Z,16.98
2022-08-10T03:58:24.012Z,16.72
2022-08-10T03:59:26.314Z,16.66
2022-08-10T04:00:31.819Z,16.65
2022-08-10T04:02:43.205Z,16.68
2022-08-10T04:02:52.768Z,16.75
2022-08-10T04:03:44.930Z,16.90
2022-08-10T04:04:47.330Z,17.00
2022-08-10T04:05:49.704Z,16.95
2022-08-10T04:06:54.285Z,16.80
2022-08-10T04:07:59.011Z,16.79
2022-08-10T04:09:01.910Z,16.84
2022-08-10T04:10:06.172Z,16.70
2022-08-10T04:11:11.462Z,16.74
2022-08-10T04:12:14.550Z,16.85
2022-08-10T04:13:17.156Z,16.84
2022-08-10T04:14:35.609Z,16.82
2022-08-10T04:15:23.893Z,16.88
2022-08-10T04:16:28.545Z,16.95
2022-08-10T04:18:04.906Z,16.90
2022-08-10T04:18:35.268Z,16.98
2022-08-10T04:19:41.101Z,17.03
2022-08-10T04:22:15.144Z,17.17
2022-08-10T04:23:26.923Z,16.92
2022-08-10T04:24:33.037Z,16.98
2022-08-10T04:25:37.942Z,17.03
2022-08-10T04:26:41.167Z,16.96
2022-08-10T04:27:44.553Z,17.08
2022-08-10T04:28:47.624Z,17.10
2022-08-10T04:29:49.887Z,17.10
2022-08-10T04:30:54.023Z,16.99
2022-08-10T04:31:56.317Z,16.88
2022-08-10T04:33:01.576Z,17.05
2022-08-10T04:34:08.868Z,17.14
2022-08-10T04:35:11.428Z,17.02
2022-08-10T04:36:16.366Z,17.24
2022-08-10T04:37:20.594Z,17.24
2022-08-10T04:38:25.720Z,17.42
2022-08-10T04:39:28.698Z,17.54
2022-08-10T04:40:31.468Z,17.39
2022-08-10T04:41:34.277Z,17.51
2022-08-10T04:42:37.686Z,17.44
2022-08-10T04:43:40.264Z,17.54
2022-08-10T04:44:42.962Z,17.68
2022-08-10T04:45:47.715Z,17.87
2022-08-10T04:46:55.711Z,17.60
2022-08-10T04:48:00.292Z,17.86
2022-08-10T04:49:01.546Z,17.64
2022-08-10T04:50:04.282Z,17.52
2022-08-10T04:51:08.110Z,17.51
2022-08-10T04:52:12.502Z,17.69
2022-08-10T04:53:14.949Z,17.65
2022-08-10T04:54:17.358Z,17.78
2022-08-10T04:55:20.369Z,17.68
2022-08-10T04:56:31.789Z,17.89
2022-08-10T04:57:28.023Z,17.90
2022-08-10T04:58:30.542Z,18.00
2022-08-10T04:59:32.995Z,17.88
2022-08-10T05:00:38.343Z,17.90
2022-08-10T05:02:28.776Z,17.80
2022-08-10T05:02:45.712Z,17.70
2022-08-10T05:04:35.055Z,17.65
2022-08-10T05:04:52.481Z,17.88
2022-08-10T05:05:54.648Z,18.13
2022-08-10T05:06:59.757Z,18.33
2022-08-10T05:08:02.228Z,18.34
2022-08-10T05:09:04.598Z,18.53
2022-08-10T05:10:11.598Z,18.53
2022-08-10T05:11:12.392Z,18.33
2022-08-10T05:12:17.139Z,18.22
2022-08-10T05:13:19.472Z,18.10
2022-08-10T05:14:22.040Z,18.30
2022-08-10T05:15:24.474Z,18.30
2022-08-10T05:16:31.856Z,18.08
2022-08-10T05:17:34.104Z,18.29
2022-08-10T05:18:36.722Z,18.29
2022-08-10T05:20:03.841Z,18.44
2022-08-10T05:20:46.195Z,18.49
2022-08-10T05:21:56.391Z,18.69
2022-08-10T05:22:52.147Z,18.52
2022-08-10T05:23:54.564Z,18.63
2022-08-10T05:24:56.785Z,18.43
2022-08-10T05:25:58.978Z,18.66
2022-08-10T05:27:10.231Z,18.69
2022-08-10T05:28:06.975Z,18.62
2022-08-10T05:29:09.543Z,18.27
2022-08-10T05:30:15.872Z,18.45
2022-08-10T05:31:22.465Z,18.43
2022-08-10T05:32:22.466Z,18.35
2022-08-10T05:33:24.821Z,18.39
2022-08-10T05:34:27.600Z,18.60
2022-08-10T05:35:56.438Z,18.67
2022-08-10T05:36:36.011Z,18.66
2022-08-10T05:38:08.938Z,18.59
2022-08-10T05:38:46.224Z,18.67
2022-08-10T05:39:49.693Z,18.67
2022-08-10T05:40:53.652Z,18.61
2022-08-10T05:41:57.988Z,17.95
2022-08-10T05:43:03.081Z,18.25
2022-08-10T05:44:05.653Z,18.28
2022-08-10T05:46:24.415Z,18.19
2022-08-10T05:47:27.121Z,18.13
2022-08-10T05:48:54.320Z,17.92
2022-08-10T05:49:39.293Z,18.02
2022-08-10T05:50:42.200Z,18.24
2022-08-10T05:51:44.890Z,18.18
2022-08-10T05:52:47.557Z,18.19
2022-08-10T05:54:00.910Z,18.13
2022-08-10T05:54:55.540Z,18.38
2022-08-10T05:55:59.342Z,18.51
2022-08-10T05:57:01.930Z,18.45
2022-08-10T05:58:04.812Z,18.37
2022-08-10T05:59:09.345Z,18.29
2022-08-10T06:00:36.906Z,18.49
2022-08-10T06:01:23.469Z,18.53
2022-08-10T06:02:35.778Z,18.61
2022-08-10T06:03:51.195Z,18.62
2022-08-10T06:04:59.779Z,18.77
2022-08-10T06:06:05.570Z,18.78
2022-08-10T06:07:10.655Z,18.89
2022-08-10T06:08:21.190Z,18.89
2022-08-10T06:09:25.594Z,18.97
2022-08-10T06:10:32.000Z,18.97
2022-08-10T06:12:27.062Z,19.01
2022-08-10T06:12:54.457Z,18.96
2022-08-10T06:13:59.722Z,18.92
2022-08-10T06:14:59.869Z,18.83
2022-08-10T06:16:02.978Z,18.77
2022-08-10T06:17:06.852Z,18.55
2022-08-10T06:18:09.225Z,18.61
2022-08-10T06:19:14.805Z,18.80
2022-08-10T06:20:19.217Z,18.88
2022-08-10T06:21:22.740Z,18.98
2022-08-10T06:22:29.601Z,18.66
2022-08-10T06:23:33.059Z,18.84
2022-08-10T06:24:50.978Z,18.95
2022-08-10T06:26:09.708Z,19.08
2022-08-10T06:26:45.687Z,19.09
2022-08-10T06:27:48.733Z,18.87
2022-08-10T06:29:03.673Z,18.85
2022-08-10T06:30:20.444Z,18.62
2022-08-10T06:31:15.103Z,18.77
2022-08-10T06:32:19.694Z,18.39
2022-08-10T06:33:25.971Z,18.51
2022-08-10T06:34:43.818Z,18.56
2022-08-10T06:35:54.605Z,18.89
2022-08-10T06:36:59.788Z,19.01
2022-08-10T06:38:05.009Z,18.77
2022-08-10T06:39:31.845Z,18.90
2022-08-10T06:40:13.258Z,19.03
2022-08-10T06:41:22.357Z,18.99
2022-08-10T06:42:32.723Z,19.07
2022-08-10T06:43:38.081Z,19.11
2022-08-10T06:44:46.890Z,19.01
2022-08-10T06:46:07.734Z,18.96
2022-08-10T06:47:08.775Z,19.26
2022-08-10T06:48:16.353Z,19.18
2022-08-10T06:49:21.709Z,19.32
2022-08-10T06:50:34.436Z,19.31
2022-08-10T06:51:41.617Z,19.35
2022-08-10T06:52:46.267Z,19.06
2022-08-10T06:53:53.997Z,19.17
2022-08-10T06:54:59.626Z,19.21
2022-08-10T06:56:12.911Z,19.44
2022-08-10T06:57:18.208Z,19.59
2022-08-10T06:58:26.592Z,19.68
2022-08-10T06:59:45.448Z,19.68
2022-08-10T07:00:51.847Z,19.63
2022-08-10T07:02:03.637Z,19.63
2022-08-10T07:03:11.083Z,19.50
2022-08-10T07:04:16.937Z,19.60
2022-08-10T07:06:36.765Z,19.74
2022-08-10T07:07:42.195Z,19.64
2022-08-10T07:08:45.504Z,19.74
2022-08-10T07:09:50.688Z,19.55
2022-08-10T07:10:53.813Z,19.61
2022-08-10T07:12:08.552Z,19.67
2022-08-10T07:13:04.835Z,19.47
2022-08-10T07:14:15.664Z,19.52
2022-08-10T07:15:15.028Z,19.72
2022-08-10T07:16:19.149Z,19.91
2022-08-10T07:17:23.934Z,19.83
2022-08-10T07:18:27.895Z,19.67
2022-08-10T07:19:32.970Z,19.85
2022-08-10T07:20:35.550Z,20.00
2022-08-10T07:21:40.835Z,19.82
2022-08-10T07:23:01.503Z,19.92
2022-08-10T07:23:57.699Z,19.96
2022-08-10T07:24:57.897Z,19.95
2022-08-10T07:26:02.842Z,19.81
2022-08-10T07:27:08.338Z,19.96
2022-08-10T07:28:12.940Z,19.87
2022-08-10T07:29:53.905Z,19.79
2022-08-10T07:30:25.503Z,19.83
2022-08-10T07:31:55.099Z,19.82
2022-08-10T07:32:35.808Z,19.75
2022-08-10T07:33:41.061Z,19.69
2022-08-10T07:34:45.298Z,19.54
2022-08-10T07:35:49.028Z,19.64
2022-08-10T07:36:52.903Z,19.43
2022-08-10T07:37:57.676Z,19.59
2022-08-10T07:39:01.482Z,19.44
2022-08-10T07:40:05.601Z,19.43
2022-08-10T07:41:09.195Z,19.72
2022-08-10T07:42:13.648Z,19.68
2022-08-10T07:43:18.361Z,19.57
2022-08-10T07:44:23.586Z,19.54
2022-08-10T07:45:29.673Z,19.72
2022-08-10T07:46:35.441Z,19.85
2022-08-10T07:47:46.338Z,20.03
2022-08-10T07:48:49.253Z,20.11
2022-08-10T07:49:53.932Z,20.24
2022-08-10T07:50:59.684Z,20.25
2022-08-10T07:52:05.799Z,20.15
2022-08-10T07:53:11.582Z,20.09
2022-08-10T07:54:14.388Z,19.89
2022-08-10T07:55:19.601Z,19.85
2022-08-10T07:56:47.915Z,20.08
2022-08-10T07:57:38.207Z,19.95
2022-08-10T07:58:46.310Z,20.03
2022-08-10T07:59:53.517Z,20.24
2022-08-10T08:00:57.803Z,20.55
2022-08-10T08:02:01.292Z,20.55
2022-08-10T08:03:04.569Z,20.46
2022-08-10T08:04:11.726Z,20.73
2022-08-10T08:05:54.926Z,20.51
2022-08-10T08:06:20.840Z,20.13
2022-08-10T08:07:23.480Z,20.56
2022-08-10T08:08:28.282Z,20.60
2022-08-10T08:09:32.867Z,20.60
2022-08-10T08:10:37.562Z,20.44
2022-08-10T08:11:43.455Z,20.04
2022-08-10T08:12:46.257Z,20.18
2022-08-10T08:13:51.613Z,20.19
2022-08-10T08:14:59.213Z,20.33
2022-08-10T08:16:21.363Z,20.44
2022-08-10T08:17:12.504Z,20.34
2022-08-10T08:18:24.853Z,20.17
2022-08-10T08:19:28.495Z,20.22
2022-08-10T08:20:33.485Z,20.28
2022-08-10T08:24:04.728Z,20.07
2022-08-10T08:24:06.550Z,19.99
2022-08-10T08:24:10.168Z,20.19
2022-08-10T08:24:54.674Z,20.06
2022-08-10T08:26:00.373Z,20.16
2022-08-10T08:27:06.315Z,19.90
2022-08-10T08:28:10.707Z,19.88
2022-08-10T08:29:14.037Z,20.08
2022-08-10T08:30:16.815Z,20.29
2022-08-10T08:31:24.572Z,20.45
2022-08-10T08:32:29.740Z,20.47
2022-08-10T08:33:41.169Z,20.30
2022-08-10T08:34:42.750Z,20.05
2022-08-10T08:35:49.236Z,20.26
2022-08-10T08:36:59.346Z,20.20
2022-08-10T08:38:31.827Z,20.14
2022-08-10T08:39:05.706Z,20.06
2022-08-10T08:40:11.911Z,20.07
2022-08-10T08:41:45.249Z,20.11
2022-08-10T08:43:02.805Z,20.22
2022-08-10T08:44:24.062Z,20.35
2022-08-10T08:45:50.961Z,20.42
2022-08-10T08:46:59.228Z,20.63
2022-08-10T08:48:12.346Z,20.30
2022-08-10T08:50:04.930Z,20.37
2022-08-10T08:50:45.652Z,20.29
2022-08-10T08:52:18.181Z,20.50
2022-08-10T08:54:01.582Z,20.65
2022-08-10T08:54:37.433Z,20.29
2022-08-10T08:56:06.939Z,20.18
2022-08-10T08:57:49.339Z,20.45
2022-08-10T08:58:52.018Z,20.34
2022-08-10T09:00:06.846Z,20.40
2022-08-10T09:01:46.873Z,20.62
2022-08-10T09:03:15.588Z,20.41
2022-08-10T09:04:43.153Z,20.70
2022-08-10T09:07:59.672Z,21.13
2022-08-10T09:08:57.006Z,20.81
2022-08-10T09:10:05.833Z,21.00
2022-08-10T09:11:21.006Z,21.14
2022-08-10T09:12:45.314Z,21.06
2022-08-10T09:14:08.252Z,21.02
2022-08-10T09:15:41.488Z,21.08
2022-08-10T09:16:56.643Z,21.19
2022-08-10T09:18:14.737Z,21.55
2022-08-10T09:19:36.324Z,21.80
2022-08-10T09:20:46.340Z,21.71
2022-08-10T09:22:13.453Z,21.82
2022-08-10T09:24:34.445Z,21.93
2022-08-10T09:25:39.505Z,21.86
2022-08-10T09:26:51.871Z,21.92
2022-08-10T09:27:57.800Z,22.15
2022-08-10T09:29:12.491Z,21.90
2022-08-10T09:30:08.760Z,21.52
2022-08-10T09:31:22.407Z,21.55
2022-08-10T09:36:13.511Z,21.52
2022-08-10T09:36:22.448Z,21.55
2022-08-10T09:36:27.870Z,21.78
2022-08-10T09:36:46.112Z,21.95
2022-08-10T09:38:04.345Z,21.92
2022-08-10T09:40:12.596Z,21.92
2022-08-10T09:41:01.267Z,21.77
2022-08-10T09:42:05.270Z,21.71
2022-08-10T09:43:25.478Z,21.66
2022-08-10T09:44:57.407Z,21.60
2022-08-10T09:46:11.918Z,21.59
2022-08-10T09:47:58.698Z,21.60
2022-08-10T09:48:44.793Z,21.51
2022-08-10T09:49:55.761Z,21.60
2022-08-10T09:51:44.734Z,21.75
2022-08-10T09:52:38.236Z,21.63
2022-08-10T09:54:02.274Z,21.95
2022-08-10T09:56:17.139Z,22.10
2022-08-10T09:57:24.553Z,22.19
2022-08-10T09:58:24.554Z,21.90
2022-08-10T10:00:00.337Z,21.85
2022-08-10T10:01:22.362Z,22.08
2022-08-10T10:02:36.496Z,22.10
2022-08-10T10:03:48.610Z,22.18
2022-08-10T10:06:56.836Z,22.10
2022-08-10T10:08:15.494Z,22.08
2022-08-10T10:09:26.670Z,22.11
2022-08-10T10:11:00.452Z,22.24
2022-08-10T10:12:23.085Z,22.31
2022-08-10T10:14:03.069Z,22.36
2022-08-10T10:15:24.153Z,22.33
2022-08-10T10:16:47.786Z,22.40
2022-08-10T10:18:22.259Z,22.22
2022-08-10T10:19:46.330Z,21.85
2022-08-10T10:20:55.529Z,21.83
2022-08-10T10:22:18.248Z,21.81
2022-08-10T10:23:41.296Z,22.06
2022-08-10T10:25:19.727Z,21.95
2022-08-10T10:26:22.954Z,21.70
2022-08-10T10:28:02.873Z,21.76
2022-08-10T10:29:56.748Z,21.82
2022-08-10T10:30:58.043Z,21.61
2022-08-10T10:32:09.957Z,21.88
2022-08-10T10:33:15.681Z,21.90
2022-08-10T10:34:27.649Z,21.77
2022-08-10T10:35:36.701Z,21.91
2022-08-10T10:36:41.881Z,21.86
2022-08-10T10:38:02.512Z,21.78
2022-08-10T10:38:53.369Z,21.92
2022-08-10T10:39:57.716Z,21.95
2022-08-10T10:41:23.466Z,21.84
2022-08-10T10:42:50.462Z,21.91
2022-08-10T10:44:05.572Z,22.09
2022-08-10T10:45:17.192Z,22.06
2022-08-10T10:46:43.430Z,21.93
2022-08-10T10:48:07.749Z,22.11
2022-08-10T10:49:30.578Z,22.03
2022-08-10T10:50:42.737Z,21.98
2022-08-10T10:51:55.115Z,21.99
2022-08-10T10:53:12.377Z,22.20
2022-08-10T10:54:28.428Z,22.23
2022-08-10T10:56:15.396Z,22.42
2022-08-10T10:57:03.296Z,22.46
2022-08-10T10:58:24.243Z,22.52
2022-08-10T11:00:05.851Z,22.57
2022-08-10T11:01:14.945Z,22.47
2022-08-10T11:02:33.095Z,22.64
2022-08-10T11:03:54.499Z,22.97
2022-08-10T11:05:12.703Z,22.63
2022-08-10T11:06:45.115Z,22.75
2022-08-10T11:08:02.981Z,22.90
2022-08-10T11:09:11.496Z,22.73
2022-08-10T11:10:32.543Z,22.67
2022-08-10T11:12:01.471Z,22.70
2022-08-10T11:14:29.745Z,23.08
2022-08-10T11:15:42.828Z,22.84
2022-08-10T11:16:57.329Z,22.97
2022-08-10T11:18:02.700Z,23.01
2022-08-10T11:19:17.843Z,23.06
2022-08-10T11:20:25.626Z,23.26
2022-08-10T11:21:46.656Z,22.91
2022-08-10T11:23:10.888Z,23.27
2022-08-10T11:24:47.431Z,23.32
2022-08-10T11:25:59.727Z,23.08
2022-08-10T11:27:11.893Z,23.15
2022-08-10T11:28:25.540Z,22.98
2022-08-10T11:29:34.655Z,22.73
2022-08-10T11:30:47.137Z,22.66
2022-08-10T11:31:59.271Z,22.66
2022-08-10T11:33:05.272Z,22.51
2022-08-10T11:34:47.002Z,22.84
2022-08-10T11:35:57.108Z,22.98
2022-08-10T11:37:10.509Z,23.13
2022-08-10T11:38:39.833Z,23.14
2022-08-10T11:39:48.892Z,23.11
2022-08-10T11:40:59.204Z,23.25
2022-08-10T11:42:16.116Z,23.40
2022-08-10T11:43:22.127Z,23.16
2022-08-10T11:44:46.815Z,23.09
2022-08-10T11:45:55.479Z,23.01
2022-08-10T11:47:12.997Z,23.00
2022-08-10T11:48:53.414Z,22.83
2022-08-10T11:49:39.083Z,22.81
2022-08-10T11:52:10.182Z,22.71
2022-08-10T11:53:24.774Z,22.74
2022-08-10T11:54:36.777Z,22.88
2022-08-10T11:55:41.825Z,23.08
2022-08-10T11:56:47.774Z,23.12
2022-08-10T11:57:55.886Z,23.27
2022-08-10T11:58:59.049Z,23.31
2022-08-10T12:00:01.452Z,23.24
2022-08-10T12:01:06.931Z,23.17
2022-08-10T12:02:12.545Z,23.21
2022-08-10T12:03:16.693Z,23.27
2022-08-10T12:04:21.512Z,23.12
2022-08-10T12:05:53.122Z,23.20
2022-08-10T12:06:55.343Z,23.18
2022-08-10T12:10:03.550Z,23.32
2022-08-10T12:10:03.973Z,23.25
2022-08-10T12:10:12.948Z,23.30
2022-08-10T12:11:12.732Z,23.30
2022-08-10T12:12:17.454Z,23.46
2022-08-10T12:13:26.481Z,23.42
2022-08-10T12:14:32.332Z,23.42
2022-08-10T12:15:47.444Z,23.13
2022-08-10T12:16:53.694Z,23.26
2022-08-10T12:17:59.706Z,23.42
2022-08-10T12:20:30.885Z,23.49
2022-08-10T12:21:48.921Z,23.44
2022-08-10T12:23:13.007Z,23.51
2022-08-10T12:24:22.024Z,23.55
2022-08-10T12:25:56.696Z,23.64
2022-08-10T12:27:13.241Z,23.57
2022-08-10T12:28:51.171Z,23.58
2022-08-10T12:31:12.837Z,23.61
2022-08-10T12:32:40.719Z,23.56
2022-08-10T12:36:17.446Z,23.52
2022-08-10T12:37:07.569Z,23.51
2022-08-10T12:38:16.379Z,23.51
2022-08-10T12:39:28.510Z,23.42
2022-08-10T12:40:36.347Z,23.57
2022-08-10T12:41:50.775Z,23.55
2022-08-10T12:44:07.666Z,23.50
2022-08-10T12:44:41.066Z,23.49
2022-08-10T12:45:47.539Z,23.28
2022-08-10T12:46:56.520Z,23.19
2022-08-10T12:48:05.021Z,23.20
2022-08-10T12:49:10.887Z,23.06
2022-08-10T12:50:33.494Z,22.94
2022-08-10T12:51:27.774Z,22.75
2022-08-10T12:52:39.680Z,22.85
2022-08-10T12:53:48.888Z,22.66
2022-08-10T12:54:54.848Z,22.64
2022-08-10T12:55:57.861Z,22.62
2022-08-10T12:57:07.035Z,22.64
2022-08-10T12:58:57.339Z,22.59
2022-08-10T12:59:21.152Z,22.70
2022-08-10T13:00:29.883Z,22.55
2022-08-10T13:02:06.162Z,22.57
2022-08-10T13:02:47.997Z,22.74
2022-08-10T13:04:22.511Z,22.61
2022-08-10T13:04:56.005Z,22.55
2022-08-10T13:06:02.972Z,22.62
2022-08-10T13:07:09.917Z,22.66
2022-08-10T13:08:27.057Z,22.68
2022-08-10T13:09:24.717Z,22.67
2022-08-10T13:10:30.363Z,22.86
2022-08-10T13:12:36.062Z,22.79
2022-08-10T13:12:44.447Z,22.55
2022-08-10T13:13:49.357Z,22.73
2022-08-10T13:14:58.357Z,22.61
2022-08-10T13:16:03.774Z,22.63
2022-08-10T13:17:07.568Z,22.58
2022-08-10T13:18:17.883Z,22.53
2022-08-10T13:19:20.152Z,22.61
2022-08-10T13:20:33.319Z,22.66
2022-08-10T13:21:38.028Z,22.61
2022-08-10T13:22:42.533Z,22.54
2022-08-10T13:24:04.356Z,22.64
2022-08-10T13:25:02.034Z,22.65
2022-08-10T13:26:07.755Z,22.61
2022-08-10T13:27:26.134Z,22.55
2022-08-10T13:28:39.861Z,22.61
2022-08-10T13:29:49.626Z,22.59
2022-08-10T13:30:57.383Z,22.54
2022-08-10T13:32:09.300Z,22.61
2022-08-10T13:34:42.426Z,22.73
2022-08-10T13:35:37.641Z,22.54
2022-08-10T13:36:42.266Z,22.63
2022-08-10T13:37:49.530Z,22.64
2022-08-10T13:38:57.536Z,22.59
2022-08-10T13:40:01.635Z,22.57
2022-08-10T13:41:05.454Z,22.68
2022-08-10T13:42:11.036Z,22.53
2022-08-10T13:43:15.902Z,22.72
2022-08-10T13:45:33.080Z,22.78
2022-08-10T13:46:37.311Z,22.68
2022-08-10T13:47:49.649Z,22.69
2022-08-10T13:48:46.764Z,22.71
2022-08-10T13:49:51.872Z,22.75
2022-08-10T13:51:00.444Z,22.75
2022-08-10T13:52:03.324Z,22.88
2022-08-10T13:53:15.483Z,22.97
2022-08-10T13:54:21.506Z,23.01
2022-08-10T13:55:27.624Z,22.64
2022-08-10T13:56:34.912Z,22.68
2022-08-10T13:57:47.643Z,22.77
2022-08-10T13:58:47.052Z,22.79
2022-08-10T14:00:34.904Z,22.79
2022-08-10T14:01:02.310Z,22.88
2022-08-10T14:02:05.421Z,22.77
2022-08-10T14:03:20.020Z,22.81
2022-08-10T14:04:22.874Z,22.88
2022-08-10T14:05:28.898Z,22.83
2022-08-10T14:06:33.100Z,22.89
2022-08-10T14:07:53.514Z,22.94
2022-08-10T14:08:48.847Z,22.83
2022-08-10T14:09:54.691Z,22.66
2022-08-10T14:11:10.975Z,22.68
2022-08-10T14:12:11.646Z,22.61
2022-08-10T14:13:16.342Z,22.67
2022-08-10T14:14:21.450Z,22.73
2022-08-10T14:15:55.973Z,22.74
2022-08-10T14:17:00.306Z,22.76
2022-08-10T14:18:05.333Z,22.75
2022-08-10T14:19:11.286Z,22.71
2022-08-10T14:20:21.358Z,22.62
2022-08-10T14:21:21.702Z,22.63
2022-08-10T14:22:33.620Z,22.52
2022-08-10T14:23:30.400Z,22.36
2022-08-10T14:24:33.286Z,22.43
2022-08-10T14:25:57.592Z,22.43
2022-08-10T14:27:03.672Z,22.46
2022-08-10T14:28:06.123Z,22.39
2022-08-10T14:29:19.092Z,22.28
2022-08-10T14:31:33.002Z,22.47
2022-08-10T14:32:41.845Z,22.34
2022-08-10T14:33:50.926Z,22.26
2022-08-10T14:36:15.347Z,22.42
2022-08-10T14:36:21.250Z,22.51
2022-08-10T14:37:07.658Z,22.32
2022-08-10T14:38:16.748Z,22.44
2022-08-10T14:39:27.758Z,22.52
2022-08-10T14:40:32.110Z,22.25
2022-08-10T14:42:03.156Z,22.46
2022-08-10T14:43:02.478Z,22.24
2022-08-10T14:44:08.505Z,22.29
2022-08-10T14:45:29.867Z,22.31
2022-08-10T14:46:32.721Z,22.28
2022-08-10T14:47:53.906Z,22.31
2022-08-10T14:48:45.959Z,22.33
2022-08-10T14:49:57.665Z,22.53
2022-08-10T14:50:56.246Z,22.57
2022-08-10T14:52:02.422Z,22.57
2022-08-10T14:53:09.616Z,22.61
2022-08-10T14:54:14.403Z,22.51
2022-08-10T14:55:19.553Z,22.39
2022-08-10T14:56:29.472Z,22.33
2022-08-10T14:58:17.214Z,22.24
2022-08-10T14:58:58.955Z,22.31
2022-08-10T15:00:21.097Z,22.47
2022-08-10T15:01:06.219Z,22.32
2022-08-10T15:02:38.530Z,22.18
2022-08-10T15:03:59.160Z,22.21
2022-08-10T15:04:26.514Z,22.32
2022-08-10T15:05:39.382Z,22.23
2022-08-10T15:06:53.497Z,22.40
2022-08-10T15:07:59.465Z,22.18
2022-08-10T15:09:12.646Z,22.15
2022-08-10T15:10:18.659Z,22.11
2022-08-10T15:12:15.293Z,22.28